Elissa — WDD9058 — position and weather

sailwx.info

Track history (hours):
 
Tides and Currents Weather Stations Pressure Air Temp Water Temp Dewpoint Dewpoint Depression Visibility Wind Speed Wind Dir Waves Ship Positions

Elissa

Owner: Ingram Barge Company, Nashville, TN. More information available from US FCC via Universal Licensing System and Coast Guard Vessel Documentation Center.

Last reported at 2017-Jan-09 06:10 UTC. Time now 2017-Jan-20 16:04 UTC.
Position N 29°56' W 090°22'.
Warning: this ship's position is 11 days out of date.

Length 26 m; draft 3.6 m.

Type: Towing. MMSI: 367306290.

Date/timePositionNaut miles runAvg speedWind from/ knotsBaromVisibWave heightAir tempDewpointWater temp
2017-Jan-09 06:10N 29°56' W 090°22'13 1.2
2017-Jan-08 19:29N 29°55' W 090°07'4 3.8
2017-Jan-08 18:33N 29°56' W 090°11'  
2017-Jan-03 02:17N 30°04' W 090°51'32 1.0
2017-Jan-01 19:31N 29°58' W 090°15'4 4.3
2017-Jan-01 18:33N 29°56' W 090°12'2 2.0
2017-Jan-01 17:33N 29°57' W 090°10'0 0.0
2017-Jan-01 16:33N 29°57' W 090°10'0 0.1
2017-Jan-01 15:33N 29°57' W 090°10'0 0.0
2017-Jan-01 14:33N 29°57' W 090°10'0 0.0
2017-Jan-01 13:33N 29°57' W 090°10'0 0.0
2017-Jan-01 11:33N 29°57' W 090°10'0 0.0
2017-Jan-01 10:30N 29°57' W 090°10'0 0.0
2017-Jan-01 07:33N 29°57' W 090°10'1 1.2
2017-Jan-01 06:33N 29°56' W 090°11'5 4.7
2017-Jan-01 05:33N 29°58' W 090°15'  
Track history (hours):
 
Tides and Currents Weather Stations Pressure Air Temp Water Temp Dewpoint Dewpoint Depression Visibility Wind Speed Wind Dir Waves Ship Positions

Elissa

Owner: Ingram Barge Company, Nashville, TN. More information available from US FCC via Universal Licensing System and Coast Guard Vessel Documentation Center.

Last reported at 2017-Jan-09 06:10 UTC. Time now 2017-Jan-20 16:04 UTC.
Position N 29°56' W 090°22'.
Warning: this ship's position is 11 days out of date.

Length 26 m; draft 3.6 m.

Type: Towing. MMSI: 367306290.

Date/timePositionNaut miles runAvg speedWind from/ knotsBaromVisibWave heightAir tempDewpointWater temp
2017-Jan-09 06:10N 29°56' W 090°22'13 1.2
2017-Jan-08 19:29N 29°55' W 090°07'4 3.8
2017-Jan-08 18:33N 29°56' W 090°11'  
2017-Jan-03 02:17N 30°04' W 090°51'32 1.0
2017-Jan-01 19:31N 29°58' W 090°15'4 4.3
2017-Jan-01 18:33N 29°56' W 090°12'2 2.0
2017-Jan-01 17:33N 29°57' W 090°10'0 0.0
2017-Jan-01 16:33N 29°57' W 090°10'0 0.1
2017-Jan-01 15:33N 29°57' W 090°10'0 0.0
2017-Jan-01 14:33N 29°57' W 090°10'0 0.0
2017-Jan-01 13:33N 29°57' W 090°10'0 0.0
2017-Jan-01 11:33N 29°57' W 090°10'0 0.0
2017-Jan-01 10:30N 29°57' W 090°10'0 0.0
2017-Jan-01 07:33N 29°57' W 090°10'1 1.2
2017-Jan-01 06:33N 29°56' W 090°11'5 4.7
2017-Jan-01 05:33N 29°58' W 090°15'  

Dump ship's entire track history